Time;durP1;ratioP1;P1;durP2;ratioP2;P2;SDS_P1;SDS_P2;PMS_P1;PMS_P2;Temp;Humidity;BMP_temperature;BMP_pressure;BME280_temperature;BME280_humidity;BME280_pressure;Samples;Min_cycle;Max_cycle;Signal;HPM_P1;HPM_P2
2021/06/13 00:02:09;;;;;;;8.30;4.60;;;13.80;1.00;;;;;;6150236;23;20234;-65
2021/06/13 00:04:35;;;;;;;7.00;3.60;;;13.70;1.00;;;;;;6125421;23;20470;-65
2021/06/13 00:07:01;;;;;;;10.20;3.67;;;13.70;1.00;;;;;;6135748;23;20237;-65
2021/06/13 00:09:28;;;;;;;6.73;3.60;;;13.70;1.00;;;;;;6136199;23;20182;-65
2021/06/13 00:11:53;;;;;;;6.32;3.53;;;13.70;1.00;;;;;;6136431;23;20218;-65
2021/06/13 00:14:21;;;;;;;7.13;4.20;;;13.70;1.00;;;;;;6136299;23;20166;-65
2021/06/13 00:16:47;;;;;;;6.28;3.50;;;13.80;1.00;;;;;;6136318;23;20143;-65
2021/06/13 00:19:12;;;;;;;10.73;4.00;;;13.70;1.00;;;;;;6136519;23;20155;-65
2021/06/13 00:21:38;;;;;;;8.97;3.30;;;13.70;1.00;;;;;;6136654;23;20470;-65
2021/06/13 00:24:05;;;;;;;7.53;3.50;;;13.60;1.00;;;;;;6136451;23;20183;-65
2021/06/13 00:26:31;;;;;;;4.38;3.30;;;13.50;1.00;;;;;;6136349;23;20225;-65
2021/06/13 00:28:56;;;;;;;7.33;3.90;;;13.40;1.00;;;;;;6136265;23;20151;-65
2021/06/13 00:31:22;;;;;;;8.80;3.30;;;13.40;1.00;;;;;;6136570;23;20166;-65
2021/06/13 00:33:48;;;;;;;6.40;3.60;;;13.40;1.00;;;;;;6137004;23;20159;-65
2021/06/13 00:36:14;;;;;;;7.18;3.83;;;13.20;1.00;;;;;;6136911;23;20155;-65
2021/06/13 00:38:40;;;;;;;12.80;3.67;;;13.20;1.00;;;;;;6150361;23;20313;-65
2021/06/13 00:41:08;;;;;;;12.63;4.40;;;13.10;1.00;;;;;;6137048;23;20585;-65
2021/06/13 00:43:34;;;;;;;6.18;3.50;;;13.20;1.00;;;;;;6137400;23;20151;-65
2021/06/13 00:45:59;;;;;;;7.80;3.67;;;13.20;1.00;;;;;;6138571;23;20447;-65
2021/06/13 00:48:25;;;;;;;8.57;3.63;;;13.20;1.00;;;;;;6152044;23;20622;-65
2021/06/13 00:50:53;;;;;;;9.23;4.30;;;13.20;1.00;;;;;;6137272;23;20562;-65
2021/06/13 00:53:20;;;;;;;11.57;4.80;;;13.10;1.00;;;;;;6136556;23;20172;-65
2021/06/13 00:55:46;;;;;;;11.70;4.22;;;13.10;1.00;;;;;;6151317;23;20214;-65
2021/06/13 00:58:12;;;;;;;8.55;4.85;;;13.00;1.00;;;;;;6138151;23;20261;-65
2021/06/13 01:00:38;;;;;;;6.83;3.40;;;13.10;1.00;;;;;;6138290;23;20182;-65
2021/06/13 01:03:05;;;;;;;5.15;3.50;;;13.20;1.00;;;;;;6138347;23;20158;-65
2021/06/13 01:05:31;;;;;;;8.75;4.25;;;13.20;1.00;;;;;;6138355;23;20229;-65
2021/06/13 01:08:07;;;;;;;5.60;3.77;;;13.30;1.00;;;;;;6138237;23;20234;-65
2021/06/13 01:10:49;;;;;;;7.90;3.72;;;13.30;1.00;;;;;;6138306;23;20401;-65
2021/06/13 01:13:43;;;;;;;7.35;4.07;;;13.30;1.00;;;;;;6138319;23;20142;-65
2021/06/13 01:16:21;;;;;;;9.82;3.72;;;13.40;1.00;;;;;;6138230;23;20185;-65
2021/06/13 01:18:57;;;;;;;8.57;3.50;;;13.40;1.00;;;;;;6138038;23;20230;-65
2021/06/13 01:21:28;;;;;;;7.65;3.55;;;13.50;1.00;;;;;;6138245;23;20581;-65
2021/06/13 01:24:06;;;;;;;10.10;3.90;;;13.50;1.00;;;;;;6138333;23;20150;-65
2021/06/13 01:26:53;;;;;;;9.52;4.50;;;13.40;1.00;;;;;;6138138;23;20605;-65
2021/06/13 01:29:35;;;;;;;8.13;3.03;;;13.40;1.00;;;;;;6137941;23;20151;-65
2021/06/13 01:32:09;;;;;;;4.10;3.00;;;13.40;1.00;;;;;;6138167;23;20150;-65
2021/06/13 01:34:39;;;;;;;7.25;3.38;;;13.30;1.00;;;;;;6138109;23;20547;-65
2021/06/13 01:37:08;;;;;;;6.65;3.60;;;13.30;1.00;;;;;;6137878;23;20214;-65
2021/06/13 01:39:38;;;;;;;9.98;3.63;;;13.20;10.10;;;;;;6137823;23;20179;-65
2021/06/13 01:42:04;;;;;;;11.20;3.92;;;13.30;44.70;;;;;;6137856;23;20179;-65
2021/06/13 01:44:31;;;;;;;10.68;3.75;;;13.40;78.80;;;;;;6138363;23;20151;-65
2021/06/13 01:47:01;;;;;;;12.27;4.50;;;13.50;94.30;;;;;;6137961;23;20205;-65
2021/06/13 01:49:29;;;;;;;9.02;4.25;;;13.40;77.50;;;;;;6138372;23;20170;-65
2021/06/13 01:51:55;;;;;;;10.32;4.40;;;13.30;99.60;;;;;;6138726;23;20154;-65
2021/06/13 01:54:21;;;;;;;9.87;4.20;;;13.30;97.60;;;;;;6139144;23;20177;-65
2021/06/13 01:56:50;;;;;;;12.55;3.95;;;13.30;99.90;;;;;;6139340;23;20691;-65
2021/06/13 01:59:18;;;;;;;9.73;4.10;;;13.20;89.20;;;;;;6137899;23;20452;-65
2021/06/13 02:01:45;;;;;;;11.70;3.65;;;13.10;92.50;;;;;;6138044;23;20166;-65
2021/06/13 02:04:12;;;;;;;7.70;4.00;;;13.10;99.90;;;;;;6137814;23;20163;-65
2021/06/13 02:06:43;;;;;;;6.45;3.72;;;13.00;99.90;;;;;;6125983;23;20159;-65
2021/06/13 02:09:11;;;;;;;9.77;4.85;;;12.80;99.90;;;;;;6136767;23;20151;-65
2021/06/13 02:11:44;;;;;;;6.65;3.30;;;12.80;99.90;;;;;;6137732;23;20155;-65
2021/06/13 02:14:10;;;;;;;8.85;3.50;;;12.70;99.90;;;;;;6137378;23;20507;-65
2021/06/13 02:16:39;;;;;;;10.02;3.63;;;12.60;99.90;;;;;;6137508;23;20182;-65
2021/06/13 02:19:06;;;;;;;11.43;4.20;;;12.70;99.90;;;;;;6137402;23;20513;-65
2021/06/13 02:21:32;;;;;;;7.47;3.45;;;12.60;99.90;;;;;;6137394;23;20216;-65
2021/06/13 02:23:58;;;;;;;8.85;3.22;;;12.60;99.90;;;;;;6137559;23;20155;-65
2021/06/13 02:26:25;;;;;;;7.60;3.33;;;12.70;99.90;;;;;;6138331;23;20465;-65
2021/06/13 02:28:54;;;;;;;9.75;3.58;;;12.90;99.90;;;;;;6137481;23;20332;-65
2021/06/13 02:31:23;;;;;;;11.18;3.63;;;13.00;37.90;;;;;;6137847;23;20155;-65
2021/06/13 02:33:50;;;;;;;10.05;4.22;;;13.10;1.00;;;;;;6137942;23;20161;-65
2021/06/13 02:36:17;;;;;;;8.68;3.13;;;13.10;1.00;;;;;;6137563;23;20163;-65
2021/06/13 02:38:42;;;;;;;6.30;3.45;;;13.00;1.00;;;;;;6126969;23;20317;-65
2021/06/13 02:41:09;;;;;;;6.90;3.70;;;13.20;1.00;;;;;;6137359;23;20179;-65
2021/06/13 02:43:34;;;;;;;8.27;4.07;;;13.20;1.00;;;;;;6137227;23;20151;-65
2021/06/13 02:46:00;;;;;;;5.50;2.70;;;13.10;1.00;;;;;;6137243;23;20193;-65
2021/06/13 02:48:26;;;;;;;8.23;2.97;;;13.10;1.00;;;;;;6136934;23;20171;-65
2021/06/13 02:50:52;;;;;;;7.77;3.13;;;13.20;1.00;;;;;;6137166;23;20163;-65
2021/06/13 02:53:44;;;;;;;8.65;3.40;;;13.20;1.00;;;;;;6137149;23;20182;-65
2021/06/13 02:56:16;;;;;;;11.43;2.97;;;13.30;1.00;;;;;;6137255;23;20594;-65
2021/06/13 02:58:42;;;;;;;5.80;2.67;;;13.30;1.00;;;;;;6136736;23;20174;-65
2021/06/13 03:01:10;;;;;;;12.37;3.30;;;13.30;1.00;;;;;;6137106;23;20257;-65
2021/06/13 03:03:37;;;;;;;8.25;3.50;;;13.30;1.00;;;;;;6137049;23;20166;-65
2021/06/13 03:06:10;;;;;;;7.03;3.35;;;13.20;1.00;;;;;;6136960;23;20155;-65
2021/06/13 03:08:37;;;;;;;7.40;3.70;;;13.20;1.00;;;;;;6136719;23;20169;-65
2021/06/13 03:11:04;;;;;;;10.18;3.78;;;13.30;1.00;;;;;;6137321;23;20457;-65
2021/06/13 03:13:30;;;;;;;5.00;3.08;;;13.40;1.00;;;;;;6137130;23;20256;-65
2021/06/13 03:15:57;;;;;;;12.90;3.83;;;13.40;1.00;;;;;;6136956;23;20582;-65
2021/06/13 03:18:24;;;;;;;8.68;3.78;;;13.30;1.00;;;;;;6136356;23;20454;-65
2021/06/13 03:20:50;;;;;;;5.70;2.90;;;13.30;1.00;;;;;;6136977;23;20214;-65
2021/06/13 03:23:17;;;;;;;6.55;3.22;;;13.20;1.00;;;;;;6136898;23;20243;-65
2021/06/13 03:25:44;;;;;;;7.75;3.10;;;13.20;1.00;;;;;;6136846;23;20151;-65
2021/06/13 03:28:09;;;;;;;9.18;3.55;;;13.30;1.00;;;;;;6136592;23;20171;-66
2021/06/13 03:30:36;;;;;;;7.43;3.03;;;13.30;1.00;;;;;;6136870;23;20233;-65
2021/06/13 03:33:06;;;;;;;10.32;3.15;;;13.30;1.00;;;;;;6136801;23;20534;-65
2021/06/13 03:35:32;;;;;;;8.90;3.45;;;13.30;1.00;;;;;;6136725;23;20467;-65
2021/06/13 03:37:58;;;;;;;3.70;3.13;;;13.40;1.00;;;;;;6136542;23;20303;-65
2021/06/13 03:40:26;;;;;;;8.80;3.30;;;13.40;1.00;;;;;;6136588;23;20209;-65
2021/06/13 03:42:52;;;;;;;5.25;2.72;;;13.50;1.00;;;;;;6136647;23;20155;-65
2021/06/13 03:45:19;;;;;;;7.07;3.65;;;13.50;1.00;;;;;;6136652;23;20210;-65
2021/06/13 03:47:45;;;;;;;4.97;2.85;;;13.50;1.00;;;;;;6136542;23;20578;-65
2021/06/13 03:50:15;;;;;;;7.00;2.50;;;13.40;1.00;;;;;;6136534;23;20218;-65
2021/06/13 03:52:41;;;;;;;4.10;2.50;;;13.30;1.00;;;;;;6136686;23;20216;-65
2021/06/13 03:55:08;;;;;;;6.27;2.80;;;13.30;1.00;;;;;;6136565;23;20226;-66
2021/06/13 03:57:34;;;;;;;8.00;2.60;;;13.40;1.00;;;;;;6136309;23;20185;-65
2021/06/13 04:00:01;;;;;;;10.60;2.80;;;13.40;1.00;;;;;;6136327;23;20178;-65
2021/06/13 04:02:27;;;;;;;8.07;3.00;;;13.40;1.00;;;;;;6135190;23;20844;-65
2021/06/13 04:04:55;;;;;;;6.00;2.90;;;13.60;1.00;;;;;;6136465;23;20476;-66
2021/06/13 04:07:21;;;;;;;8.07;2.88;;;13.70;1.00;;;;;;6136468;23;20465;-66
2021/06/13 04:09:47;;;;;;;9.93;3.35;;;13.70;99.90;;;;;;6136423;23;20151;-65
2021/06/13 04:12:17;;;;;;;10.57;3.97;;;13.80;1.00;;;;;;6136484;23;20191;-65
2021/06/13 04:14:44;;;;;;;9.00;3.65;;;13.90;99.90;;;;;;6136562;23;20213;-65
2021/06/13 04:17:17;;;;;;;4.07;2.58;;;13.90;99.90;;;;;;6136521;23;20209;-66
2021/06/13 04:19:44;;;;;;;6.93;3.65;;;13.90;99.90;;;;;;6136609;23;20139;-66
2021/06/13 04:22:16;;;;;;;7.53;2.72;;;13.70;99.90;;;;;;6136382;23;20190;-66
2021/06/13 04:24:42;;;;;;;9.57;3.40;;;13.70;99.90;;;;;;6136391;23;20151;-66
2021/06/13 04:27:10;;;;;;;9.27;3.65;;;13.60;1.00;;;;;;6136227;23;20460;-66
2021/06/13 04:29:36;;;;;;;7.10;3.25;;;13.80;99.90;;;;;;6136378;23;20185;-66
2021/06/13 04:32:03;;;;;;;8.70;4.18;;;13.80;99.90;;;;;;6138355;23;20166;-66
2021/06/13 04:34:28;;;;;;;9.00;3.15;;;13.80;99.90;;;;;;6138284;23;20154;-65
2021/06/13 04:36:54;;;;;;;7.53;3.67;;;13.90;99.90;;;;;;6138133;23;20155;-65
2021/06/13 04:39:19;;;;;;;5.63;2.77;;;13.90;99.90;;;;;;6138188;23;20163;-65
2021/06/13 04:41:45;;;;;;;4.40;2.80;;;14.10;99.90;;;;;;6138382;23;20159;-65
2021/06/13 04:44:10;;;;;;;8.90;3.63;;;14.10;99.90;;;;;;6138276;23;20166;-65
2021/06/13 04:46:36;;;;;;;9.60;3.17;;;14.10;99.90;;;;;;6138297;23;20158;-65
2021/06/13 04:49:02;;;;;;;8.00;4.00;;;13.90;99.90;;;;;;6138086;23;20185;-65
2021/06/13 04:51:28;;;;;;;12.03;3.60;;;13.90;99.90;;;;;;6138313;23;20159;-65
2021/06/13 04:53:59;;;;;;;5.97;2.97;;;13.90;99.90;;;;;;6138290;23;20398;-65
2021/06/13 04:56:46;;;;;;;9.63;3.30;;;13.80;99.90;;;;;;6138088;23;20234;-65
2021/06/13 04:59:11;;;;;;;7.97;3.13;;;13.70;1.00;;;;;;6138082;23;20157;-65
2021/06/13 05:01:43;;;;;;;7.60;2.87;;;13.80;99.90;;;;;;6137693;23;20226;-65
2021/06/13 05:04:09;;;;;;;7.40;4.05;;;13.80;99.90;;;;;;6138299;23;20142;-65
2021/06/13 05:06:35;;;;;;;10.57;3.20;;;13.80;99.90;;;;;;6151617;23;20159;-65
2021/06/13 05:09:01;;;;;;;4.40;2.60;;;14.10;99.90;;;;;;6138087;23;20159;-65
2021/06/13 05:11:27;;;;;;;6.68;3.13;;;14.00;99.90;;;;;;6138434;23;20209;-65
2021/06/13 05:13:53;;;;;;;8.00;3.33;;;14.10;99.90;;;;;;6138439;23;20503;-66
2021/06/13 05:16:19;;;;;;;5.63;2.93;;;14.20;99.90;;;;;;6137990;23;20472;-66
2021/06/13 05:18:44;;;;;;;7.77;3.13;;;14.30;99.90;;;;;;6137722;23;20514;-66
2021/06/13 05:21:10;;;;;;;8.13;3.30;;;14.20;99.90;;;;;;6137940;23;20841;-65
2021/06/13 05:23:36;;;;;;;9.03;2.57;;;14.30;99.90;;;;;;6128670;23;20159;-65
2021/06/13 05:26:02;;;;;;;6.60;2.57;;;14.20;99.90;;;;;;6138122;23;20162;-65
2021/06/13 05:28:28;;;;;;;9.07;3.07;;;14.30;99.90;;;;;;6137840;23;20234;-65
2021/06/13 05:30:55;;;;;;;7.75;3.28;;;14.40;99.90;;;;;;6137968;23;20170;-65
2021/06/13 05:33:21;;;;;;;5.50;2.80;;;14.40;99.90;;;;;;6137971;23;20161;-65
2021/06/13 05:35:48;;;;;;;5.45;2.70;;;14.60;1.00;;;;;;6137814;23;20234;-65
2021/06/13 05:38:14;;;;;;;7.85;3.53;;;14.60;1.00;;;;;;6137496;23;20675;-65
2021/06/13 05:40:41;;;;;;;6.60;2.63;;;15.00;99.90;;;;;;6137765;23;20155;-65
2021/06/13 05:43:10;;;;;;;10.18;3.80;;;16.30;99.90;;;;;;6137889;23;20390;-65
2021/06/13 05:45:38;;;;;;;10.48;3.22;;;15.70;1.00;;;;;;6137793;23;20155;-65
2021/06/13 05:48:04;;;;;;;6.72;3.30;;;15.20;1.00;;;;;;6137634;23;20159;-66
2021/06/13 05:50:30;;;;;;;8.88;4.03;;;14.90;1.00;;;;;;6137502;23;20167;-66
2021/06/13 05:52:56;;;;;;;9.90;4.25;;;14.80;1.00;;;;;;6137691;23;20182;-66
2021/06/13 05:55:23;;;;;;;6.73;2.97;;;14.70;21.40;;;;;;6137805;23;20167;-67
2021/06/13 05:57:49;;;;;;;4.30;3.05;;;14.80;6.20;;;;;;6137536;23;20530;-66
2021/06/13 06:00:27;;;;;;;8.27;3.55;;;14.80;1.00;;;;;;6151072;23;20511;-66
2021/06/13 06:02:53;;;;;;;6.43;3.90;;;14.60;99.90;;;;;;6151250;23;20158;-65
2021/06/13 06:05:23;;;;;;;8.93;3.53;;;14.50;99.90;;;;;;6137731;23;20165;-65
2021/06/13 06:07:50;;;;;;;5.28;2.90;;;14.40;99.90;;;;;;6128170;23;20148;-66
2021/06/13 06:10:16;;;;;;;8.23;3.13;;;14.70;99.90;;;;;;6137564;23;20175;-66
2021/06/13 06:12:45;;;;;;;10.20;4.35;;;14.70;99.90;;;;;;6137663;23;20434;-66
2021/06/13 06:15:13;;;;;;;7.10;3.20;;;14.70;99.90;;;;;;6137531;23;20167;-66
2021/06/13 06:17:39;;;;;;;9.88;3.65;;;14.90;1.00;;;;;;6137583;23;20258;-66
2021/06/13 06:20:07;;;;;;;8.03;3.80;;;15.00;1.00;;;;;;6137604;23;20179;-67
2021/06/13 06:22:32;;;;;;;8.68;3.30;;;15.20;1.00;;;;;;6137723;23;20617;-67
2021/06/13 06:24:58;;;;;;;6.13;2.90;;;15.40;1.00;;;;;;6137655;23;20163;-66
2021/06/13 06:27:23;;;;;;;6.63;3.30;;;15.70;99.90;;;;;;6137573;23;20488;-66
2021/06/13 06:29:49;;;;;;;5.93;3.97;;;16.10;1.00;;;;;;6137478;23;20562;-66
2021/06/13 06:32:18;;;;;;;10.23;3.20;;;16.40;1.00;;;;;;6137707;23;20230;-66
2021/06/13 06:34:43;;;;;;;10.03;4.00;;;15.90;99.90;;;;;;6126756;23;20221;-66
2021/06/13 06:37:09;;;;;;;8.77;3.73;;;15.80;1.00;;;;;;6127822;23;20465;-64
2021/06/13 06:39:34;;;;;;;6.77;2.73;;;16.90;63.50;;;;;;6137471;23;20573;-67
2021/06/13 06:42:00;;;;;;;8.27;3.37;;;19.00;34.20;;;;;;6137419;23;20194;-66
2021/06/13 06:44:26;;;;;;;8.30;3.90;;;19.70;99.90;;;;;;6137401;23;20151;-66
2021/06/13 06:46:52;;;;;;;6.53;3.10;;;20.00;99.90;;;;;;6137413;23;20155;-66
2021/06/13 06:49:18;;;;;;;10.10;3.80;;;20.40;99.90;;;;;;6137228;23;20390;-66
2021/06/13 06:51:43;;;;;;;5.33;3.33;;;20.60;99.90;;;;;;6137365;23;20800;-66
2021/06/13 06:54:09;;;;;;;5.70;2.70;;;19.70;99.90;;;;;;6136994;23;20158;-66
2021/06/13 06:56:35;;;;;;;6.50;3.30;;;18.50;86.30;;;;;;6137165;23;20518;-66
2021/06/13 06:59:00;;;;;;;8.90;4.03;;;17.60;99.90;;;;;;6137119;23;20179;-66
2021/06/13 07:01:27;;;;;;;7.00;3.63;;;16.70;99.90;;;;;;6137165;23;20433;-65
2021/06/13 07:03:53;;;;;;;14.50;4.50;;;16.10;99.90;;;;;;6150858;23;20246;-65
2021/06/13 07:06:18;;;;;;;6.80;3.60;;;15.70;99.90;;;;;;6137317;23;20469;-66
2021/06/13 07:08:44;;;;;;;7.87;3.80;;;15.70;1.00;;;;;;6136631;23;20430;-65
2021/06/13 07:11:10;;;;;;;5.20;3.43;;;15.70;1.00;;;;;;6137225;23;20166;-65
2021/06/13 07:13:37;;;;;;;5.37;3.37;;;15.60;1.00;;;;;;6137229;23;20555;-65
2021/06/13 07:16:02;;;;;;;12.53;4.80;;;15.50;1.00;;;;;;6137070;23;20222;-64
2021/06/13 07:18:28;;;;;;;6.87;3.37;;;15.90;1.00;;;;;;6150063;23;20430;-64
2021/06/13 07:20:54;;;;;;;5.77;3.60;;;15.90;1.00;;;;;;6136604;23;20214;-64
2021/06/13 07:23:20;;;;;;;8.73;3.67;;;15.80;99.90;;;;;;6136828;23;20147;-64
2021/06/13 07:25:47;;;;;;;6.67;3.37;;;15.90;1.00;;;;;;6137017;23;20401;-64
2021/06/13 07:28:13;;;;;;;10.70;2.90;;;16.10;1.00;;;;;;6137238;23;20162;-64
2021/06/13 07:30:40;;;;;;;7.03;3.50;;;16.00;1.00;;;;;;6128064;23;20698;-64
2021/06/13 07:33:06;;;;;;;6.60;3.63;;;15.80;99.90;;;;;;6137053;23;20391;-64
2021/06/13 07:35:31;;;;;;;6.40;3.57;;;16.40;99.90;;;;;;6137148;23;20875;-67
2021/06/13 07:38:00;;;;;;;9.07;3.47;;;16.40;1.00;;;;;;6137144;23;20426;-67
2021/06/13 07:40:27;;;;;;;7.77;4.10;;;16.30;1.00;;;;;;6136953;23;20168;-66
2021/06/13 07:42:52;;;;;;;6.90;3.00;;;16.40;1.00;;;;;;6136772;23;20445;-67
2021/06/13 07:45:18;;;;;;;5.17;2.80;;;16.20;1.00;;;;;;6137096;23;20366;-66
2021/06/13 07:47:44;;;;;;;10.03;4.20;;;16.20;99.90;;;;;;6136824;23;20163;-66
2021/06/13 07:50:12;;;;;;;9.00;3.90;;;16.10;1.00;;;;;;6150331;23;20173;-66
2021/06/13 07:52:38;;;;;;;13.10;4.47;;;16.60;1.00;;;;;;6150280;23;20174;-66
2021/06/13 07:55:05;;;;;;;6.33;3.10;;;16.50;1.00;;;;;;6137197;23;20395;-66
2021/06/13 07:57:31;;;;;;;10.00;3.80;;;16.80;1.00;;;;;;6136568;23;20422;-66
2021/06/13 07:59:57;;;;;;;12.10;4.60;;;16.80;99.90;;;;;;6136438;23;20457;-66
2021/06/13 08:02:22;;;;;;;8.10;3.20;;;16.40;99.90;;;;;;6136785;23;20178;-66
2021/06/13 08:04:59;;;;;;;12.60;5.00;;;16.50;1.00;;;;;;6136947;23;20892;-66
2021/06/13 08:07:24;;;;;;;6.07;3.03;;;16.20;71.20;;;;;;6150618;23;20163;-66
2021/06/13 08:09:50;;;;;;;7.20;3.37;;;15.70;99.90;;;;;;6137144;23;20422;-66
2021/06/13 08:12:16;;;;;;;6.80;3.30;;;15.60;1.00;;;;;;6137168;23;20262;-65
2021/06/13 08:14:42;;;;;;;8.93;3.90;;;15.80;99.90;;;;;;6137154;23;20254;-65
2021/06/13 08:17:07;;;;;;;9.17;3.00;;;16.00;99.90;;;;;;6136885;23;20791;-65
2021/06/13 08:19:33;;;;;;;10.80;4.67;;;15.90;1.00;;;;;;6137209;23;20179;-65
2021/06/13 08:21:59;;;;;;;10.27;3.63;;;16.30;99.90;;;;;;6136855;23;20158;-65
2021/06/13 08:24:24;;;;;;;9.77;3.80;;;16.20;99.90;;;;;;6136900;23;20166;-66
2021/06/13 08:26:50;;;;;;;7.80;3.37;;;16.90;1.00;;;;;;6135708;23;20150;-66
2021/06/13 08:29:15;;;;;;;8.03;3.40;;;17.30;85.80;;;;;;6136878;23;20166;-65
2021/06/13 08:31:44;;;;;;;7.30;3.97;;;16.80;1.00;;;;;;6136898;23;20245;-65
2021/06/13 08:34:09;;;;;;;6.53;3.77;;;16.70;99.90;;;;;;6127565;23;20458;-65
2021/06/13 08:36:35;;;;;;;8.60;3.90;;;16.70;1.00;;;;;;6136676;23;20810;-65
2021/06/13 08:39:01;;;;;;;9.07;3.00;;;16.60;99.90;;;;;;6136678;23;20252;-65
2021/06/13 08:41:27;;;;;;;6.03;3.73;;;16.40;14.60;;;;;;6136617;23;20158;-65
2021/06/13 08:43:52;;;;;;;9.90;3.00;;;16.20;61.80;;;;;;6150001;23;20578;-65
2021/06/13 08:46:20;;;;;;;10.27;4.50;;;16.10;1.00;;;;;;6136137;23;20394;-65
2021/06/13 08:48:47;;;;;;;6.40;3.80;;;16.20;99.90;;;;;;6136042;23;20154;-65
2021/06/13 08:51:14;;;;;;;9.60;6.10;;;16.40;99.90;;;;;;6136182;23;20449;-66
2021/06/13 08:53:44;;;;;;;10.70;5.30;;;16.70;1.00;;;;;;6135604;23;20868;-67
2021/06/13 08:56:17;;;;;;;9.60;3.73;;;17.20;99.90;;;;;;6136000;23;20371;-67
2021/06/13 08:58:43;;;;;;;7.70;3.90;;;17.30;1.00;;;;;;6136091;23;20508;-71
2021/06/13 09:01:11;;;;;;;10.40;3.83;;;17.20;1.00;;;;;;6136050;23;20833;-68
2021/06/13 09:03:37;;;;;;;6.37;3.43;;;16.70;29.40;;;;;;6136050;23;20747;-67
2021/06/13 09:06:03;;;;;;;7.70;4.30;;;16.60;99.90;;;;;;6136289;23;20827;-68
2021/06/13 09:08:36;;;;;;;10.60;4.80;;;16.40;1.00;;;;;;6124866;23;20409;-66
2021/06/13 09:11:03;;;;;;;10.37;5.40;;;16.20;1.00;;;;;;6136114;23;20393;-65
2021/06/13 09:13:30;;;;;;;8.83;4.07;;;16.50;1.00;;;;;;6136092;23;20694;-67
2021/06/13 09:16:01;;;;;;;10.20;4.47;;;16.50;99.90;;;;;;6135068;23;20550;-73
2021/06/13 09:18:32;;;;;;;8.30;4.87;;;16.60;99.90;;;;;;6137184;23;20433;-68
2021/06/13 09:20:59;;;;;;;7.50;4.10;;;17.00;99.90;;;;;;6126544;23;20767;-70
2021/06/13 09:23:27;;;;;;;10.50;3.90;;;17.10;1.00;;;;;;6138094;23;20398;-68
2021/06/13 09:26:03;;;;;;;8.53;4.67;;;17.00;1.00;;;;;;6138275;23;20382;-70
2021/06/13 09:28:31;;;;;;;9.90;5.30;;;17.00;1.00;;;;;;6151322;23;20402;-67
2021/06/13 09:30:57;;;;;;;6.30;4.27;;;17.20;1.00;;;;;;6138008;23;20395;-67
2021/06/13 09:33:32;;;;;;;5.20;3.00;;;17.10;1.00;;;;;;6136749;23;20409;-64
2021/06/13 09:35:59;;;;;;;9.17;3.40;;;17.40;99.90;;;;;;6149563;23;20540;-65
2021/06/13 09:38:27;;;;;;;5.53;3.37;;;17.60;99.90;;;;;;6125958;23;20457;-64
2021/06/13 09:40:57;;;;;;;6.20;3.50;;;17.40;16.60;;;;;;6127372;23;20405;-64
2021/06/13 09:43:33;;;;;;;9.97;4.03;;;17.80;1.00;;;;;;6137294;23;20692;-64
2021/06/13 09:46:30;;;;;;;8.67;4.10;;;18.00;1.00;;;;;;6137406;23;20441;-64
2021/06/13 09:49:02;;;;;;;6.43;3.63;;;18.20;99.90;;;;;;6125832;23;20461;-64
2021/06/13 09:51:33;;;;;;;6.53;3.83;;;18.10;99.90;;;;;;6127299;23;20458;-64
2021/06/13 09:54:03;;;;;;;7.63;3.87;;;18.60;99.90;;;;;;6129376;23;20398;-64
2021/06/13 09:56:31;;;;;;;4.53;3.40;;;18.40;98.30;;;;;;6138322;23;20407;-64
2021/06/13 09:59:11;;;;;;;5.97;3.27;;;18.20;99.90;;;;;;6138039;23;20505;-64
2021/06/13 10:01:46;;;;;;;6.40;2.93;;;17.90;99.90;;;;;;6138160;23;20945;-64
2021/06/13 10:04:18;;;;;;;6.90;4.13;;;18.00;97.70;;;;;;6138069;23;20397;-64
2021/06/13 10:06:46;;;;;;;6.83;3.03;;;18.20;99.90;;;;;;6138613;23;20450;-64
2021/06/13 10:09:12;;;;;;;7.40;3.53;;;17.90;99.90;;;;;;6138486;23;20390;-64
2021/06/13 10:11:39;;;;;;;7.00;2.70;;;17.90;99.90;;;;;;6137989;23;20390;-64
2021/06/13 10:14:17;;;;;;;8.53;4.00;;;17.50;99.90;;;;;;6137665;23;20449;-64
2021/06/13 10:16:50;;;;;;;4.57;3.10;;;17.80;99.90;;;;;;6137662;23;20412;-64
2021/06/13 10:19:24;;;;;;;5.73;3.40;;;18.00;99.90;;;;;;6126450;23;20607;-65
2021/06/13 10:21:50;;;;;;;6.13;3.20;;;18.30;99.90;;;;;;6137657;23;20702;-64
2021/06/13 10:24:24;;;;;;;6.93;3.43;;;18.80;41.70;;;;;;6137408;23;20390;-64
2021/06/13 10:27:02;;;;;;;5.20;3.13;;;19.10;1.00;;;;;;6137271;23;20479;-64
2021/06/13 10:29:30;;;;;;;5.03;3.57;;;18.80;1.00;;;;;;6137304;23;20460;-65
2021/06/13 10:31:58;;;;;;;5.13;3.30;;;18.30;14.50;;;;;;6137476;23;20402;-64
2021/06/13 10:34:25;;;;;;;7.47;3.67;;;18.40;78.80;;;;;;6137450;23;20405;-64
2021/06/13 10:36:52;;;;;;;6.63;3.63;;;18.70;1.00;;;;;;6137610;23;20387;-64
2021/06/13 10:39:20;;;;;;;7.27;3.80;;;18.10;11.40;;;;;;6137391;23;20485;-64
2021/06/13 10:41:46;;;;;;;7.73;3.30;;;18.10;99.90;;;;;;6137446;23;20389;-64
2021/06/13 10:44:15;;;;;;;7.07;3.97;;;18.30;1.00;;;;;;6137514;23;20434;-65
2021/06/13 10:46:45;;;;;;;9.80;4.60;;;18.60;1.00;;;;;;6137220;23;20478;-64
2021/06/13 10:49:34;;;;;;;4.33;3.00;;;18.90;1.00;;;;;;6137353;23;20682;-64
2021/06/13 10:52:20;;;;;;;7.87;4.37;;;19.20;1.00;;;;;;6127523;23;20399;-64
2021/06/13 10:54:54;;;;;;;8.77;3.50;;;18.80;1.00;;;;;;6137090;23;20409;-65
2021/06/13 10:57:20;;;;;;;4.77;2.73;;;18.50;1.00;;;;;;6137225;23;20422;-65
2021/06/13 10:59:47;;;;;;;5.80;3.67;;;18.20;75.10;;;;;;6137393;23;20665;-64
2021/06/13 11:02:25;;;;;;;5.77;3.50;;;18.50;1.00;;;;;;6137303;23;20391;-65
2021/06/13 11:05:01;;;;;;;7.97;4.30;;;18.60;3.10;;;;;;6137260;23;20806;-65
2021/06/13 11:07:27;;;;;;;2.70;1.93;;;18.50;39.50;;;;;;6137148;23;20458;-65
2021/06/13 11:10:09;;;;;;;6.47;3.73;;;18.20;5.40;;;;;;6137055;23;20433;-65
2021/06/13 11:12:56;;;;;;;7.80;3.60;;;18.70;1.00;;;;;;6137162;23;20169;-66
2021/06/13 11:15:28;;;;;;;4.60;3.40;;;18.80;1.00;;;;;;6137031;23;20490;-65
2021/06/13 11:17:57;;;;;;;4.80;2.80;;;19.00;1.00;;;;;;6137102;23;20918;-65
2021/06/13 11:23:12;;;;;;;5.67;3.90;;;18.60;1.00;;;;;;6136077;23;20371;-67
2021/06/13 11:25:40;;;;;;;7.70;4.27;;;18.80;1.00;;;;;;6136720;23;20382;-68
2021/06/13 11:28:13;;;;;;;5.70;3.00;;;19.70;1.00;;;;;;6136659;23;20701;-67
2021/06/13 11:30:46;;;;;;;10.23;3.97;;;19.60;1.00;;;;;;6136823;23;20395;-71
2021/06/13 11:33:34;;;;;;;7.67;3.93;;;19.00;1.00;;;;;;6151256;23;20399;-69
2021/06/13 11:36:27;;;;;;;6.90;3.50;;;19.10;1.00;;;;;;6137162;23;20395;-70
2021/06/13 11:39:02;;;;;;;6.07;3.43;;;19.10;1.00;;;;;;6136664;23;20410;-71
2021/06/13 11:41:39;;;;;;;10.50;4.10;;;19.30;1.00;;;;;;6137300;23;20522;-71
2021/06/13 11:44:08;;;;;;;6.40;3.60;;;19.20;1.00;;;;;;6137095;23;20367;-71
2021/06/13 11:46:35;;;;;;;8.10;3.47;;;18.70;1.00;;;;;;6137404;23;20398;-69
2021/06/13 11:49:03;;;;;;;6.13;3.63;;;19.00;1.00;;;;;;6137183;23;20461;-72
2021/06/13 11:51:29;;;;;;;9.23;3.57;;;19.10;1.00;;;;;;6150485;23;20403;-68
2021/06/13 11:54:01;;;;;;;4.93;3.13;;;19.00;1.00;;;;;;6136643;23;20709;-67
2021/06/13 11:56:35;;;;;;;6.77;3.23;;;19.40;1.00;;;;;;6137033;23;20375;-65
2021/06/13 11:59:19;;;;;;;5.73;3.33;;;19.10;1.00;;;;;;6126316;23;20426;-67
2021/06/13 12:01:56;;;;;;;9.43;3.77;;;19.40;1.00;;;;;;6136977;23;20445;-67
2021/06/13 12:04:25;;;;;;;6.80;2.83;;;19.50;1.00;;;;;;6125907;23;20489;-67
2021/06/13 12:06:51;;;;;;;9.13;4.13;;;19.30;1.00;;;;;;6136562;23;20395;-67
2021/06/13 12:09:20;;;;;;;5.20;3.17;;;19.10;1.00;;;;;;6136522;23;20438;-67
2021/06/13 12:11:53;;;;;;;5.60;3.47;;;19.30;1.00;;;;;;6136590;23;20345;-67
2021/06/13 12:14:36;;;;;;;6.80;3.10;;;19.40;1.00;;;;;;6136524;23;20379;-67
2021/06/13 12:17:25;;;;;;;4.80;2.67;;;19.30;9.10;;;;;;6136474;23;20961;-67
2021/06/13 12:19:56;;;;;;;6.73;3.27;;;19.20;1.00;;;;;;6136503;23;20398;-64
2021/06/13 12:22:42;;;;;;;9.40;3.10;;;18.90;1.00;;;;;;6136403;23;20534;-65
2021/06/13 12:28:03;;;;;;;6.47;3.13;;;18.70;99.90;;;;;;6136400;23;20437;-69
2021/06/13 12:30:29;;;;;;;8.03;3.40;;;19.20;99.90;;;;;;6125198;23;20410;-68
2021/06/13 12:33:04;;;;;;;5.30;3.67;;;19.50;1.00;;;;;;6136488;23;20151;-69
2021/06/13 12:35:35;;;;;;;8.13;2.70;;;19.90;1.00;;;;;;6136514;23;20390;-68
2021/06/13 12:38:12;;;;;;;4.73;3.10;;;19.40;1.00;;;;;;6135999;23;20481;-67
2021/06/13 12:40:42;;;;;;;5.77;2.53;;;19.10;8.40;;;;;;6136357;23;20381;-68
2021/06/13 12:43:08;;;;;;;6.00;5.40;;;19.20;1.00;;;;;;6136242;23;20798;-68
2021/06/13 12:45:36;;;;;;;6.60;3.10;;;18.90;1.00;;;;;;6136405;23;20390;-67
2021/06/13 12:48:03;;;;;;;4.87;3.17;;;19.20;1.00;;;;;;6136017;23;20387;-67
2021/06/13 12:50:36;;;;;;;8.40;4.70;;;19.50;1.00;;;;;;6136488;23;20398;-68
2021/06/13 12:53:05;;;;;;;6.27;3.00;;;19.60;1.00;;;;;;6138196;23;20448;-70
2021/06/13 12:55:36;;;;;;;6.30;2.87;;;20.00;1.00;;;;;;6138234;23;20390;-70
2021/06/13 12:58:02;;;;;;;5.33;3.40;;;19.30;1.00;;;;;;6138211;23;20421;-71
2021/06/13 13:00:28;;;;;;;8.60;3.53;;;19.30;1.00;;;;;;6138261;23;20390;-68
2021/06/13 13:03:11;;;;;;;5.57;3.20;;;19.70;1.00;;;;;;6138378;23;20391;-68
2021/06/13 13:05:39;;;;;;;5.00;3.07;;;19.70;1.00;;;;;;6138539;23;20378;-69